createdAt,value
2018-02-09T00:02:16.254Z,-1.90
2018-02-09T00:04:50.171Z,-1.90
2018-02-09T00:07:23.983Z,-1.90
2018-02-09T00:10:04.484Z,-1.90
2018-02-09T00:12:42.510Z,-1.90
2018-02-09T00:15:20.488Z,-1.90
2018-02-09T00:18:03.188Z,-1.90
2018-02-09T00:20:36.269Z,-1.90
2018-02-09T00:23:11.959Z,-2.00
2018-02-09T00:25:50.660Z,-2.00
2018-02-09T00:28:30.310Z,-2.00
2018-02-09T00:31:10.794Z,-1.90
2018-02-09T00:33:49.913Z,-1.90
2018-02-09T00:36:28.775Z,-1.90
2018-02-09T00:39:03.724Z,-1.80
2018-02-09T00:41:46.238Z,-1.90
2018-02-09T00:44:28.007Z,-1.80
2018-02-09T00:47:07.498Z,-1.60
2018-02-09T00:49:50.059Z,-1.70
2018-02-09T00:52:28.390Z,-1.60
2018-02-09T00:55:09.636Z,-1.70
2018-02-09T00:57:49.776Z,-1.60
2018-02-09T01:00:28.893Z,-1.60
2018-02-09T01:03:08.214Z,-1.60
2018-02-09T01:05:47.689Z,-1.60
2018-02-09T01:08:27.446Z,-1.50
2018-02-09T01:11:06.691Z,-1.50
2018-02-09T01:13:44.916Z,-1.70
2018-02-09T01:16:26.404Z,-1.70
2018-02-09T01:19:05.027Z,-1.80
2018-02-09T01:21:43.920Z,-1.80
2018-02-09T01:24:17.813Z,-1.70
2018-02-09T01:26:58.884Z,-1.70
2018-02-09T01:29:37.231Z,-1.70
2018-02-09T01:32:18.052Z,-1.60
2018-02-09T01:34:57.551Z,-1.60
2018-02-09T01:37:37.286Z,-1.80
2018-02-09T01:40:14.687Z,-1.80
2018-02-09T01:42:53.055Z,-1.80
2018-02-09T01:45:32.902Z,-1.90
2018-02-09T01:48:13.099Z,-1.70
2018-02-09T01:50:50.862Z,-1.70
2018-02-09T01:53:30.938Z,-1.60
2018-02-09T01:56:12.311Z,-1.50
2018-02-09T01:58:51.684Z,-1.50
2018-02-09T02:01:30.301Z,-1.60
2018-02-09T02:04:11.840Z,-1.50
2018-02-09T02:06:50.297Z,-1.50
2018-02-09T02:09:31.694Z,-1.60
2018-02-09T02:12:11.037Z,-1.50
2018-02-09T02:14:54.304Z,-1.50
2018-02-09T02:17:28.009Z,-1.90
2018-02-09T02:20:02.405Z,-1.80
2018-02-09T02:22:41.186Z,-1.80
2018-02-09T02:25:20.024Z,-1.60
2018-02-09T02:28:00.898Z,-1.60
2018-02-09T02:30:46.646Z,-1.60
2018-02-09T02:33:28.467Z,-1.50
2018-02-09T02:36:05.781Z,-1.60
2018-02-09T02:38:46.625Z,-1.50
2018-02-09T02:41:25.592Z,-1.70
2018-02-09T02:44:04.721Z,-1.90
2018-02-09T02:46:44.492Z,-1.80
2018-02-09T02:49:24.984Z,-1.70
2018-02-09T02:52:03.872Z,-1.50
2018-02-09T02:54:42.562Z,-1.50
2018-02-09T02:57:18.228Z,-1.70
2018-02-09T02:59:50.748Z,-1.90
2018-02-09T03:02:29.322Z,-1.70
2018-02-09T03:05:13.929Z,-1.70
2018-02-09T03:07:47.427Z,-1.60
2018-02-09T03:10:25.722Z,-1.60
2018-02-09T03:13:05.914Z,-1.50
2018-02-09T03:15:45.378Z,-1.50
2018-02-09T03:18:25.960Z,-1.70
2018-02-09T03:21:03.743Z,-1.70
2018-02-09T03:23:41.425Z,-1.70
2018-02-09T03:26:20.536Z,-2.00
2018-02-09T03:29:01.404Z,-2.00
2018-02-09T03:31:42.389Z,-2.00
2018-02-09T03:34:23.234Z,-1.90
2018-02-09T03:36:56.968Z,-1.80
2018-02-09T03:39:37.839Z,-1.90
2018-02-09T03:42:17.014Z,-1.90
2018-02-09T03:44:56.123Z,-2.10
2018-02-09T03:47:33.532Z,-2.10
2018-02-09T03:50:16.463Z,-2.10
2018-02-09T03:52:54.379Z,-2.10
2018-02-09T03:55:33.160Z,-2.10
2018-02-09T03:58:12.265Z,-2.20
2018-02-09T04:00:50.156Z,-2.20
2018-02-09T04:03:29.618Z,-2.10
2018-02-09T04:06:08.140Z,-2.10
2018-02-09T04:08:48.397Z,-2.10
2018-02-09T04:11:30.872Z,-2.10
2018-02-09T04:14:10.700Z,-2.00
2018-02-09T04:16:51.920Z,-2.00
2018-02-09T04:19:33.638Z,-2.00
2018-02-09T04:22:17.337Z,-1.90
2018-02-09T04:25:00.121Z,-1.90
2018-02-09T04:27:39.226Z,-1.90
2018-02-09T04:30:20.186Z,-2.00
2018-02-09T04:32:57.694Z,-2.00
2018-02-09T04:35:37.877Z,-2.00
2018-02-09T04:38:21.458Z,-2.00
2018-02-09T04:41:03.604Z,-2.00
2018-02-09T04:43:45.326Z,-1.90
2018-02-09T04:46:26.749Z,-1.90
2018-02-09T04:49:10.473Z,-1.90
2018-02-09T04:51:56.548Z,-1.90
2018-02-09T04:54:35.322Z,-1.70
2018-02-09T04:57:13.871Z,-1.80
2018-02-09T04:59:53.067Z,-1.80
2018-02-09T05:02:30.937Z,-2.00
2018-02-09T05:05:09.836Z,-2.00
2018-02-09T05:07:49.366Z,-2.10
2018-02-09T05:10:22.616Z,-2.20
2018-02-09T05:13:01.079Z,-2.20
2018-02-09T05:15:40.193Z,-2.30
2018-02-09T05:18:18.995Z,-2.20
2018-02-09T05:20:57.324Z,-2.10
2018-02-09T05:23:35.494Z,-2.30
2018-02-09T05:26:15.878Z,-2.30
2018-02-09T05:28:55.520Z,-2.40
2018-02-09T05:31:34.000Z,-2.50
2018-02-09T05:34:11.552Z,-2.50
2018-02-09T05:36:49.848Z,-2.60
2018-02-09T05:39:30.778Z,-2.60
2018-02-09T05:42:10.064Z,-2.70
2018-02-09T05:44:48.632Z,-2.70
2018-02-09T05:47:27.048Z,-2.70
2018-02-09T05:50:04.964Z,-2.70
2018-02-09T05:52:46.539Z,-2.70
2018-02-09T05:55:26.130Z,-2.70
2018-02-09T05:58:00.761Z,-2.70
2018-02-09T06:00:35.222Z,-2.80
2018-02-09T06:03:11.657Z,-2.80
2018-02-09T06:05:46.269Z,-2.90
2018-02-09T06:08:20.472Z,-2.90
2018-02-09T06:10:55.344Z,-2.90
2018-02-09T06:13:33.925Z,-3.00
2018-02-09T06:16:12.355Z,-3.00
2018-02-09T06:18:52.999Z,-3.00
2018-02-09T06:21:33.135Z,-3.00
2018-02-09T06:24:12.446Z,-3.10
2018-02-09T06:26:54.956Z,-3.10
2018-02-09T06:29:33.477Z,-3.20
2018-02-09T06:32:13.360Z,-3.20
2018-02-09T06:34:56.786Z,-3.40
2018-02-09T06:37:38.249Z,-3.30
2018-02-09T06:40:18.551Z,-3.40
2018-02-09T06:42:57.929Z,-3.40
2018-02-09T06:45:38.033Z,-3.40
2018-02-09T06:48:17.216Z,-3.40
2018-02-09T06:50:56.340Z,-3.40
2018-02-09T06:53:35.827Z,-3.40
2018-02-09T06:56:18.922Z,-3.50
2018-02-09T06:58:56.973Z,-3.50
2018-02-09T07:01:36.876Z,-3.50
2018-02-09T07:04:20.310Z,-3.50
2018-02-09T07:06:59.768Z,-3.50
2018-02-09T07:09:39.829Z,-3.50
2018-02-09T07:12:21.991Z,-3.50
2018-02-09T07:15:05.487Z,-3.50
2018-02-09T07:17:39.129Z,-3.50
2018-02-09T07:20:19.227Z,-3.60
2018-02-09T07:22:59.041Z,-3.60
2018-02-09T07:25:39.480Z,-3.60
2018-02-09T07:28:14.245Z,-3.60
2018-02-09T07:30:53.957Z,-3.60
2018-02-09T07:33:32.300Z,-3.60
2018-02-09T07:36:10.989Z,-3.50
2018-02-09T07:38:47.373Z,-3.40
2018-02-09T07:41:23.865Z,-3.40
2018-02-09T07:43:58.308Z,-3.40
2018-02-09T07:46:33.993Z,-3.40
2018-02-09T07:49:14.661Z,-3.40
2018-02-09T07:51:54.945Z,-3.40
2018-02-09T07:54:36.106Z,-3.40
2018-02-09T07:57:15.862Z,-3.10
2018-02-09T07:59:52.393Z,-3.00
2018-02-09T08:02:31.949Z,-3.00
2018-02-09T08:05:12.042Z,-2.90
2018-02-09T08:07:52.101Z,-2.90
2018-02-09T08:10:31.125Z,-2.70
2018-02-09T08:13:12.557Z,-2.50
2018-02-09T08:15:47.039Z,-2.20
2018-02-09T08:18:27.290Z,-2.20
2018-02-09T08:21:09.400Z,-2.10
2018-02-09T08:23:48.785Z,-1.90
2018-02-09T08:26:30.019Z,-1.80
2018-02-09T08:29:05.838Z,-1.50
2018-02-09T08:34:19.199Z,-1.60
2018-02-09T08:36:55.193Z,-1.40
2018-02-09T08:39:34.109Z,-1.20
2018-02-09T08:42:11.742Z,-1.00
2018-02-09T08:44:50.911Z,-0.70
2018-02-09T08:47:28.810Z,-0.70
2018-02-09T08:50:05.734Z,-0.60
2018-02-09T08:52:44.420Z,-0.50
2018-02-09T08:55:22.743Z,-0.50
2018-02-09T08:58:04.363Z,-0.30
2018-02-09T09:00:43.868Z,-0.30
2018-02-09T09:03:22.988Z,-0.30
2018-02-09T09:06:02.368Z,-0.20
2018-02-09T09:08:42.726Z,0.00
2018-02-09T09:11:23.516Z,0.20
2018-02-09T09:14:04.300Z,0.40
2018-02-09T09:16:45.929Z,0.50
2018-02-09T09:19:27.706Z,0.50
2018-02-09T09:22:08.811Z,0.70
2018-02-09T09:24:41.978Z,1.00
2018-02-09T09:27:21.529Z,1.20
2018-02-09T09:30:00.369Z,1.50
2018-02-09T09:32:41.490Z,1.40
2018-02-09T09:35:17.120Z,1.50
2018-02-09T09:37:58.199Z,1.70
2018-02-09T09:40:37.801Z,1.50
2018-02-09T09:43:19.159Z,1.50
2018-02-09T09:45:57.207Z,1.70
2018-02-09T09:48:42.156Z,1.90
2018-02-09T09:51:17.353Z,1.90
2018-02-09T09:53:58.404Z,1.90
2018-02-09T09:56:41.813Z,1.90
2018-02-09T09:59:21.504Z,1.90
2018-02-09T10:02:01.479Z,2.40
2018-02-09T10:04:35.996Z,3.00
2018-02-09T10:07:18.925Z,4.20
2018-02-09T10:09:53.165Z,4.40
2018-02-09T10:12:28.821Z,3.80
2018-02-09T10:15:03.467Z,5.40
2018-02-09T10:17:41.727Z,5.30
2018-02-09T10:20:26.897Z,6.20
2018-02-09T10:23:05.347Z,5.20
2018-02-09T10:25:49.543Z,4.10
2018-02-09T10:28:28.586Z,4.10
2018-02-09T10:31:10.769Z,4.20
2018-02-09T10:33:47.447Z,4.60
2018-02-09T10:36:32.651Z,4.70
2018-02-09T10:39:15.664Z,4.80
2018-02-09T10:41:57.977Z,5.80
2018-02-09T10:44:41.813Z,6.40
2018-02-09T10:47:24.048Z,7.10
2018-02-09T10:50:04.739Z,5.60
2018-02-09T10:52:49.667Z,5.60
2018-02-09T10:55:30.056Z,6.60
2018-02-09T10:58:15.130Z,6.40
2018-02-09T11:00:53.895Z,6.40
2018-02-09T11:03:32.647Z,6.50
2018-02-09T11:06:15.665Z,6.40
2018-02-09T11:08:56.132Z,6.70
2018-02-09T11:11:39.929Z,7.00
2018-02-09T11:14:24.656Z,6.90
2018-02-09T11:17:08.015Z,7.20
2018-02-09T11:19:51.577Z,7.20
2018-02-09T11:22:34.266Z,7.30
2018-02-09T11:25:14.304Z,7.40
2018-02-09T11:27:50.448Z,6.80
2018-02-09T11:30:30.555Z,6.30
2018-02-09T11:33:12.288Z,6.60
2018-02-09T11:35:51.350Z,6.50
2018-02-09T11:38:26.387Z,6.50
2018-02-09T11:41:08.862Z,6.30
2018-02-09T11:43:49.208Z,6.90
2018-02-09T11:46:32.176Z,7.40
2018-02-09T11:49:13.583Z,7.40
2018-02-09T11:51:54.046Z,8.00
2018-02-09T11:57:14.493Z,7.90
2018-02-09T11:59:53.218Z,6.90
2018-02-09T12:02:35.271Z,7.20
2018-02-09T12:05:16.210Z,7.10
2018-02-09T12:07:53.697Z,7.60
2018-02-09T12:10:32.234Z,6.80
2018-02-09T12:13:13.510Z,6.70
2018-02-09T12:15:54.388Z,4.60
2018-02-09T12:18:31.981Z,5.90
2018-02-09T12:21:16.571Z,6.60
2018-02-09T12:23:57.675Z,6.70
2018-02-09T12:26:39.056Z,7.00
2018-02-09T12:29:24.860Z,4.60
2018-02-09T12:32:01.813Z,4.60
2018-02-09T12:34:40.309Z,5.20
2018-02-09T12:37:23.430Z,5.20
2018-02-09T12:40:03.959Z,5.40
2018-02-09T12:42:41.155Z,5.50
2018-02-09T12:45:24.819Z,6.00
2018-02-09T12:48:08.615Z,6.30
2018-02-09T12:50:43.139Z,6.10
2018-02-09T12:53:22.053Z,5.60
2018-02-09T12:56:00.364Z,6.00
2018-02-09T12:58:43.481Z,5.30
2018-02-09T13:01:23.304Z,5.60
2018-02-09T13:04:06.271Z,5.50
2018-02-09T13:06:41.344Z,5.50
2018-02-09T13:09:22.604Z,5.40
2018-02-09T13:11:59.187Z,5.80
2018-02-09T13:14:45.935Z,6.40
2018-02-09T13:17:29.547Z,6.20
2018-02-09T13:20:11.417Z,6.10
2018-02-09T13:22:58.524Z,5.50
2018-02-09T13:25:40.536Z,5.20
2018-02-09T13:28:24.220Z,5.20
2018-02-09T13:31:03.615Z,5.10
2018-02-09T13:33:46.298Z,5.10
2018-02-09T13:36:25.660Z,4.90
2018-02-09T13:39:03.573Z,4.70
2018-02-09T13:41:42.025Z,4.90
2018-02-09T13:44:21.665Z,5.00
2018-02-09T13:46:55.882Z,4.40
2018-02-09T13:50:49.192Z,4.10
2018-02-09T13:53:30.378Z,4.70
2018-02-09T13:56:08.844Z,4.70
2018-02-09T13:58:57.916Z,4.20
2018-02-09T14:01:32.326Z,4.10
2018-02-09T14:04:14.196Z,4.40
2018-02-09T14:06:56.339Z,4.60
2018-02-09T14:09:39.065Z,5.30
2018-02-09T14:12:15.193Z,5.30
2018-02-09T14:14:54.788Z,4.90
2018-02-09T14:17:39.524Z,4.90
2018-02-09T14:20:14.083Z,4.80
2018-02-09T14:22:57.874Z,4.90
2018-02-09T14:25:36.608Z,4.90
2018-02-09T14:28:11.708Z,5.00
2018-02-09T14:30:53.122Z,4.60
2018-02-09T14:33:38.116Z,4.60
2018-02-09T14:36:12.236Z,4.90
2018-02-09T14:38:50.901Z,5.10
2018-02-09T14:41:32.832Z,5.20
2018-02-09T14:44:10.482Z,5.10
2018-02-09T14:46:52.008Z,5.30
2018-02-09T14:49:34.718Z,5.30
2018-02-09T14:52:15.816Z,4.90
2018-02-09T14:55:00.416Z,4.90
2018-02-09T14:57:36.564Z,4.00
2018-02-09T15:00:16.132Z,3.90
2018-02-09T15:02:56.437Z,3.40
2018-02-09T15:05:31.862Z,3.20
2018-02-09T15:08:10.548Z,3.00
2018-02-09T15:10:53.713Z,3.00
2018-02-09T15:13:33.386Z,3.00
2018-02-09T15:16:09.517Z,3.00
2018-02-09T15:18:48.659Z,3.00
2018-02-09T15:21:33.142Z,3.00
2018-02-09T15:24:13.006Z,3.10
2018-02-09T15:26:57.304Z,2.90
2018-02-09T15:29:38.341Z,2.90
2018-02-09T15:32:21.767Z,2.80
2018-02-09T15:34:59.619Z,2.70
2018-02-09T15:37:41.039Z,2.70
2018-02-09T15:40:24.857Z,2.70
2018-02-09T15:43:06.302Z,2.70
2018-02-09T15:45:46.792Z,2.60
2018-02-09T15:48:32.674Z,2.70
2018-02-09T15:51:07.566Z,2.60
2018-02-09T15:53:50.452Z,2.70
2018-02-09T15:56:31.062Z,2.50
2018-02-09T15:59:15.298Z,2.50
2018-02-09T16:01:53.578Z,2.40
2018-02-09T16:04:39.515Z,2.30
2018-02-09T16:07:21.066Z,2.30
2018-02-09T16:10:02.690Z,2.20
2018-02-09T16:12:45.318Z,2.30
2018-02-09T16:15:23.293Z,2.30
2018-02-09T16:18:01.819Z,2.20
2018-02-09T16:20:45.457Z,2.10
2018-02-09T16:23:19.167Z,2.10
2018-02-09T16:25:53.307Z,2.10
2018-02-09T16:28:36.468Z,2.00
2018-02-09T16:31:10.364Z,2.10
2018-02-09T16:33:49.635Z,2.10
2018-02-09T16:36:27.975Z,2.10
2018-02-09T16:39:10.139Z,2.00
2018-02-09T16:41:51.842Z,1.90
2018-02-09T16:44:26.268Z,2.10
2018-02-09T16:47:06.713Z,2.10
2018-02-09T16:49:46.817Z,2.00
2018-02-09T16:52:24.909Z,2.10
2018-02-09T16:55:02.870Z,2.00
2018-02-09T16:57:47.173Z,1.90
2018-02-09T17:00:25.424Z,1.90
2018-02-09T17:03:00.754Z,1.90
2018-02-09T17:05:40.439Z,1.90
2018-02-09T17:08:22.192Z,1.90
2018-02-09T17:11:00.956Z,2.00
2018-02-09T17:13:39.699Z,1.90
2018-02-09T17:16:19.492Z,1.90
2018-02-09T17:19:00.396Z,1.90
2018-02-09T17:21:39.139Z,1.90
2018-02-09T17:24:20.357Z,1.90
2018-02-09T17:27:05.573Z,1.90
2018-02-09T17:29:44.509Z,1.90
2018-02-09T17:32:23.932Z,1.90
2018-02-09T17:35:00.548Z,1.90
2018-02-09T17:37:41.105Z,1.90
2018-02-09T17:40:23.745Z,2.00
2018-02-09T17:43:04.855Z,2.00
2018-02-09T17:45:46.082Z,2.00
2018-02-09T17:48:25.565Z,2.00
2018-02-09T17:51:04.537Z,2.10
2018-02-09T17:53:44.648Z,2.10
2018-02-09T17:56:28.295Z,2.10
2018-02-09T17:59:10.054Z,1.90
2018-02-09T18:01:49.238Z,1.90
2018-02-09T18:04:32.463Z,1.90
2018-02-09T18:07:11.908Z,1.90
2018-02-09T18:09:56.744Z,1.90
2018-02-09T18:12:38.737Z,1.90
2018-02-09T18:15:22.889Z,2.00
2018-02-09T18:18:08.125Z,2.00
2018-02-09T18:20:51.366Z,2.00
2018-02-09T18:23:36.179Z,1.80
2018-02-09T18:26:19.912Z,1.80
2018-02-09T18:29:00.190Z,1.80
2018-02-09T18:31:41.240Z,1.80
2018-02-09T18:34:19.246Z,1.90
2018-02-09T18:36:55.889Z,1.90
2018-02-09T18:39:41.839Z,1.80
2018-02-09T18:42:20.952Z,1.90
2018-02-09T18:44:58.518Z,1.90
2018-02-09T18:47:38.062Z,1.90
2018-02-09T18:50:18.490Z,1.80
2018-02-09T18:52:57.955Z,1.80
2018-02-09T18:55:33.465Z,1.90
2018-02-09T18:58:08.818Z,1.90
2018-02-09T19:00:48.792Z,1.90
2018-02-09T19:03:28.222Z,1.90
2018-02-09T19:06:04.140Z,1.90
2018-02-09T19:08:44.391Z,2.00
2018-02-09T19:11:27.010Z,1.90
2018-02-09T19:14:09.999Z,1.90
2018-02-09T19:16:49.136Z,1.90
2018-02-09T19:19:28.801Z,1.90
2018-02-09T19:22:03.427Z,1.90
2018-02-09T19:24:41.559Z,1.90
2018-02-09T19:27:20.213Z,1.90
2018-02-09T19:29:59.044Z,1.90
2018-02-09T19:32:34.527Z,1.90
2018-02-09T19:35:14.293Z,1.80
2018-02-09T19:37:52.192Z,1.80
2018-02-09T19:40:27.615Z,1.90
2018-02-09T19:43:05.876Z,1.90
2018-02-09T19:45:44.346Z,1.90
2018-02-09T19:48:19.364Z,1.90
2018-02-09T19:50:55.108Z,1.90
2018-02-09T19:53:30.348Z,1.90
2018-02-09T19:56:07.332Z,1.90
2018-02-09T19:58:49.066Z,1.80
2018-02-09T20:01:29.892Z,1.80
2018-02-09T20:04:08.614Z,1.90
2018-02-09T20:06:47.156Z,2.00
2018-02-09T20:09:24.901Z,1.90
2018-02-09T20:12:02.730Z,1.90
2018-02-09T20:14:42.368Z,2.00
2018-02-09T20:17:21.572Z,2.00
2018-02-09T20:20:02.164Z,2.00
2018-02-09T20:22:42.958Z,1.90
2018-02-09T20:25:21.990Z,1.90
2018-02-09T20:27:59.508Z,1.90
2018-02-09T20:30:37.235Z,1.80
2018-02-09T20:33:15.565Z,1.80
2018-02-09T20:35:54.028Z,1.80
2018-02-09T20:38:32.235Z,1.80
2018-02-09T20:41:11.991Z,1.70
2018-02-09T20:43:50.339Z,1.80
2018-02-09T20:46:25.613Z,1.90
2018-02-09T20:49:04.597Z,1.90
2018-02-09T20:51:43.936Z,1.90
2018-02-09T20:54:21.486Z,2.00
2018-02-09T20:57:00.436Z,2.10
2018-02-09T20:59:35.191Z,2.10
2018-02-09T21:02:17.507Z,2.00
2018-02-09T21:04:57.375Z,2.00
2018-02-09T21:07:37.178Z,1.90
2018-02-09T21:10:14.706Z,1.90
2018-02-09T21:12:56.636Z,2.00
2018-02-09T21:15:30.607Z,2.00
2018-02-09T21:18:11.057Z,2.00
2018-02-09T21:20:48.460Z,2.10
2018-02-09T21:23:26.634Z,2.00
2018-02-09T21:26:05.634Z,2.00
2018-02-09T21:28:45.107Z,1.90
2018-02-09T21:31:19.980Z,1.90
2018-02-09T21:34:00.679Z,1.90
2018-02-09T21:36:39.633Z,1.90
2018-02-09T21:39:18.086Z,1.90
2018-02-09T21:41:57.855Z,1.90
2018-02-09T21:44:36.482Z,1.90
2018-02-09T21:47:15.245Z,1.80
2018-02-09T21:49:56.383Z,1.90
2018-02-09T21:52:34.072Z,2.00
2018-02-09T21:55:14.105Z,1.90
2018-02-09T21:57:52.405Z,1.90
2018-02-09T22:00:27.460Z,1.90
2018-02-09T22:03:07.107Z,1.90
2018-02-09T22:05:40.358Z,1.90
2018-02-09T22:08:20.885Z,2.00
2018-02-09T22:10:54.930Z,2.00
2018-02-09T22:13:35.092Z,2.00
2018-02-09T22:16:15.267Z,2.00
2018-02-09T22:18:52.519Z,2.00
2018-02-09T22:21:33.792Z,2.10
2018-02-09T22:24:12.095Z,2.00
2018-02-09T22:26:50.611Z,2.10
2018-02-09T22:29:30.899Z,2.10
2018-02-09T22:32:12.840Z,2.00
2018-02-09T22:34:51.740Z,2.00
2018-02-09T22:37:30.752Z,2.00
2018-02-09T22:40:09.908Z,2.10
2018-02-09T22:42:50.901Z,2.00
2018-02-09T22:45:30.811Z,2.10
2018-02-09T22:48:06.362Z,2.10
2018-02-09T22:50:41.157Z,2.10
2018-02-09T22:53:14.294Z,2.10
2018-02-09T22:55:47.882Z,2.00
2018-02-09T22:58:22.953Z,1.90
2018-02-09T23:01:01.891Z,1.90
2018-02-09T23:03:41.634Z,1.90
2018-02-09T23:06:15.431Z,1.90
2018-02-09T23:08:56.343Z,1.80
2018-02-09T23:11:36.577Z,2.00
2018-02-09T23:14:16.464Z,1.90
2018-02-09T23:16:57.442Z,2.00
2018-02-09T23:19:36.322Z,2.00
2018-02-09T23:22:16.151Z,2.00
2018-02-09T23:24:50.199Z,1.90
2018-02-09T23:27:30.748Z,1.80
2018-02-09T23:30:09.378Z,1.80
2018-02-09T23:32:51.721Z,1.90
2018-02-09T23:35:29.832Z,1.90
2018-02-09T23:38:09.040Z,1.90
2018-02-09T23:40:49.562Z,1.80
2018-02-09T23:43:26.565Z,1.80
2018-02-09T23:46:07.684Z,1.70
2018-02-09T23:48:46.762Z,1.70
2018-02-09T23:51:27.032Z,1.70
2018-02-09T23:54:05.743Z,1.70
2018-02-09T23:56:41.745Z,1.70
2018-02-09T23:59:19.265Z,1.70
